sensor_id;sensor_type;location;lat;lon;timestamp;P1;durP1;ratioP1;P2;durP2;ratioP2
22068;SDS011;13887;57.196;-2.100;2023-06-10T00:00:29;11.37;;;11.00;;
22068;SDS011;13887;57.196;-2.100;2023-06-10T00:02:58;11.40;;;11.00;;
22068;SDS011;13887;57.196;-2.100;2023-06-10T00:05:26;11.73;;;11.33;;
22068;SDS011;13887;57.196;-2.100;2023-06-10T00:07:56;11.40;;;11.00;;
22068;SDS011;13887;57.196;-2.100;2023-06-10T00:10:24;11.17;;;10.87;;
22068;SDS011;13887;57.196;-2.100;2023-06-10T00:12:51;11.47;;;11.07;;
22068;SDS011;13887;57.196;-2.100;2023-06-10T00:15:18;11.87;;;11.47;;
22068;SDS011;13887;57.196;-2.100;2023-06-10T00:17:45;12.10;;;11.70;;
22068;SDS011;13887;57.196;-2.100;2023-06-10T00:20:12;11.90;;;11.50;;
22068;SDS011;13887;57.196;-2.100;2023-06-10T00:22:39;11.60;;;11.20;;
22068;SDS011;13887;57.196;-2.100;2023-06-10T00:25:08;11.40;;;11.00;;
22068;SDS011;13887;57.196;-2.100;2023-06-10T00:27:39;11.80;;;11.40;;
22068;SDS011;13887;57.196;-2.100;2023-06-10T00:30:06;11.80;;;11.40;;
22068;SDS011;13887;57.196;-2.100;2023-06-10T00:32:34;12.00;;;11.60;;
22068;SDS011;13887;57.196;-2.100;2023-06-10T00:35:02;12.00;;;11.60;;
22068;SDS011;13887;57.196;-2.100;2023-06-10T00:37:30;11.83;;;11.43;;
22068;SDS011;13887;57.196;-2.100;2023-06-10T00:39:58;12.00;;;11.60;;
22068;SDS011;13887;57.196;-2.100;2023-06-10T00:42:25;12.00;;;11.60;;
22068;SDS011;13887;57.196;-2.100;2023-06-10T00:44:54;11.67;;;11.27;;
22068;SDS011;13887;57.196;-2.100;2023-06-10T00:47:21;11.73;;;11.33;;
22068;SDS011;13887;57.196;-2.100;2023-06-10T00:49:49;12.10;;;11.70;;
22068;SDS011;13887;57.196;-2.100;2023-06-10T00:52:17;11.77;;;11.37;;
22068;SDS011;13887;57.196;-2.100;2023-06-10T00:54:46;12.30;;;11.90;;
22068;SDS011;13887;57.196;-2.100;2023-06-10T00:57:14;12.07;;;11.67;;
22068;SDS011;13887;57.196;-2.100;2023-06-10T00:59:42;11.80;;;11.40;;
22068;SDS011;13887;57.196;-2.100;2023-06-10T01:02:12;12.00;;;11.60;;
22068;SDS011;13887;57.196;-2.100;2023-06-10T01:04:39;11.70;;;11.30;;
22068;SDS011;13887;57.196;-2.100;2023-06-10T01:09:43;12.13;;;11.73;;
22068;SDS011;13887;57.196;-2.100;2023-06-10T01:15:17;12.03;;;11.63;;
22068;SDS011;13887;57.196;-2.100;2023-06-10T01:20:26;12.17;;;11.77;;
22068;SDS011;13887;57.196;-2.100;2023-06-10T01:22:56;12.13;;;11.73;;
22068;SDS011;13887;57.196;-2.100;2023-06-10T01:25:25;12.13;;;11.73;;
22068;SDS011;13887;57.196;-2.100;2023-06-10T01:30:43;12.20;;;11.80;;
22068;SDS011;13887;57.196;-2.100;2023-06-10T01:33:31;11.97;;;11.57;;
22068;SDS011;13887;57.196;-2.100;2023-06-10T01:36:09;11.93;;;11.53;;
22068;SDS011;13887;57.196;-2.100;2023-06-10T01:38:39;11.40;;;11.00;;
22068;SDS011;13887;57.196;-2.100;2023-06-10T01:41:09;11.73;;;11.33;;
22068;SDS011;13887;57.196;-2.100;2023-06-10T01:43:38;12.10;;;11.70;;
22068;SDS011;13887;57.196;-2.100;2023-06-10T01:46:06;11.70;;;11.30;;
22068;SDS011;13887;57.196;-2.100;2023-06-10T01:48:33;11.93;;;11.53;;
22068;SDS011;13887;57.196;-2.100;2023-06-10T01:51:00;11.97;;;11.57;;
22068;SDS011;13887;57.196;-2.100;2023-06-10T01:53:27;11.83;;;11.43;;
22068;SDS011;13887;57.196;-2.100;2023-06-10T01:55:54;11.80;;;11.40;;
22068;SDS011;13887;57.196;-2.100;2023-06-10T01:58:22;12.03;;;11.63;;
22068;SDS011;13887;57.196;-2.100;2023-06-10T02:00:49;11.70;;;11.30;;
22068;SDS011;13887;57.196;-2.100;2023-06-10T02:03:16;11.73;;;11.33;;
22068;SDS011;13887;57.196;-2.100;2023-06-10T02:05:43;11.70;;;11.30;;
22068;SDS011;13887;57.196;-2.100;2023-06-10T02:08:10;11.70;;;11.30;;
22068;SDS011;13887;57.196;-2.100;2023-06-10T02:10:37;11.97;;;11.57;;
22068;SDS011;13887;57.196;-2.100;2023-06-10T02:13:04;11.50;;;11.10;;
22068;SDS011;13887;57.196;-2.100;2023-06-10T02:15:32;11.47;;;11.07;;
22068;SDS011;13887;57.196;-2.100;2023-06-10T02:17:59;12.10;;;11.70;;
22068;SDS011;13887;57.196;-2.100;2023-06-10T02:20:27;11.53;;;11.13;;
22068;SDS011;13887;57.196;-2.100;2023-06-10T02:22:54;11.67;;;11.27;;
22068;SDS011;13887;57.196;-2.100;2023-06-10T02:25:21;11.87;;;11.47;;
22068;SDS011;13887;57.196;-2.100;2023-06-10T02:27:49;11.87;;;11.47;;
22068;SDS011;13887;57.196;-2.100;2023-06-10T02:30:16;11.80;;;11.40;;
22068;SDS011;13887;57.196;-2.100;2023-06-10T02:32:44;12.07;;;11.67;;
22068;SDS011;13887;57.196;-2.100;2023-06-10T02:35:17;11.80;;;11.40;;
22068;SDS011;13887;57.196;-2.100;2023-06-10T02:37:44;12.03;;;11.63;;
22068;SDS011;13887;57.196;-2.100;2023-06-10T02:40:11;12.10;;;11.70;;
22068;SDS011;13887;57.196;-2.100;2023-06-10T02:42:38;11.87;;;11.47;;
22068;SDS011;13887;57.196;-2.100;2023-06-10T02:45:06;11.80;;;11.40;;
22068;SDS011;13887;57.196;-2.100;2023-06-10T02:47:39;11.97;;;11.57;;
22068;SDS011;13887;57.196;-2.100;2023-06-10T02:50:10;11.77;;;11.37;;
22068;SDS011;13887;57.196;-2.100;2023-06-10T02:52:50;12.20;;;11.80;;
22068;SDS011;13887;57.196;-2.100;2023-06-10T02:55:18;12.10;;;11.70;;
22068;SDS011;13887;57.196;-2.100;2023-06-10T02:57:51;11.87;;;11.47;;
22068;SDS011;13887;57.196;-2.100;2023-06-10T03:00:19;12.40;;;12.00;;
22068;SDS011;13887;57.196;-2.100;2023-06-10T03:02:48;11.93;;;11.53;;
22068;SDS011;13887;57.196;-2.100;2023-06-10T03:05:18;12.10;;;11.70;;
22068;SDS011;13887;57.196;-2.100;2023-06-10T03:07:47;12.23;;;11.83;;
22068;SDS011;13887;57.196;-2.100;2023-06-10T03:10:15;11.60;;;11.20;;
22068;SDS011;13887;57.196;-2.100;2023-06-10T03:12:42;11.80;;;11.40;;
22068;SDS011;13887;57.196;-2.100;2023-06-10T03:15:10;12.10;;;11.70;;
22068;SDS011;13887;57.196;-2.100;2023-06-10T03:17:38;12.17;;;11.77;;
22068;SDS011;13887;57.196;-2.100;2023-06-10T03:20:06;12.43;;;12.03;;
22068;SDS011;13887;57.196;-2.100;2023-06-10T03:22:36;12.07;;;11.67;;
22068;SDS011;13887;57.196;-2.100;2023-06-10T03:25:08;11.83;;;11.43;;
22068;SDS011;13887;57.196;-2.100;2023-06-10T03:27:45;12.20;;;11.80;;
22068;SDS011;13887;57.196;-2.100;2023-06-10T03:30:13;12.07;;;11.67;;
22068;SDS011;13887;57.196;-2.100;2023-06-10T03:32:41;11.97;;;11.57;;
22068;SDS011;13887;57.196;-2.100;2023-06-10T03:35:12;12.00;;;11.60;;
22068;SDS011;13887;57.196;-2.100;2023-06-10T03:37:40;11.90;;;11.50;;
22068;SDS011;13887;57.196;-2.100;2023-06-10T03:40:07;12.40;;;12.00;;
22068;SDS011;13887;57.196;-2.100;2023-06-10T03:42:37;12.20;;;11.80;;
22068;SDS011;13887;57.196;-2.100;2023-06-10T03:45:04;12.00;;;11.60;;
22068;SDS011;13887;57.196;-2.100;2023-06-10T03:47:34;12.47;;;12.07;;
22068;SDS011;13887;57.196;-2.100;2023-06-10T03:50:04;12.00;;;11.60;;
22068;SDS011;13887;57.196;-2.100;2023-06-10T03:52:33;12.23;;;11.83;;
22068;SDS011;13887;57.196;-2.100;2023-06-10T03:55:01;11.97;;;11.57;;
22068;SDS011;13887;57.196;-2.100;2023-06-10T03:57:29;11.93;;;11.53;;
22068;SDS011;13887;57.196;-2.100;2023-06-10T03:59:56;12.23;;;11.83;;
22068;SDS011;13887;57.196;-2.100;2023-06-10T04:02:24;12.10;;;11.70;;
22068;SDS011;13887;57.196;-2.100;2023-06-10T04:04:52;12.30;;;11.90;;
22068;SDS011;13887;57.196;-2.100;2023-06-10T04:07:19;12.07;;;11.67;;
22068;SDS011;13887;57.196;-2.100;2023-06-10T04:09:46;12.27;;;11.87;;
22068;SDS011;13887;57.196;-2.100;2023-06-10T04:12:14;12.57;;;12.17;;
22068;SDS011;13887;57.196;-2.100;2023-06-10T04:14:41;12.50;;;12.10;;
22068;SDS011;13887;57.196;-2.100;2023-06-10T04:17:10;12.30;;;11.90;;
22068;SDS011;13887;57.196;-2.100;2023-06-10T04:19:37;12.33;;;11.93;;
22068;SDS011;13887;57.196;-2.100;2023-06-10T04:22:05;12.30;;;11.90;;
22068;SDS011;13887;57.196;-2.100;2023-06-10T04:24:32;12.30;;;11.90;;
22068;SDS011;13887;57.196;-2.100;2023-06-10T04:27:00;12.63;;;12.23;;
22068;SDS011;13887;57.196;-2.100;2023-06-10T04:29:27;12.33;;;11.93;;
22068;SDS011;13887;57.196;-2.100;2023-06-10T04:31:54;12.63;;;12.23;;
22068;SDS011;13887;57.196;-2.100;2023-06-10T04:34:21;12.30;;;11.90;;
22068;SDS011;13887;57.196;-2.100;2023-06-10T04:36:48;12.50;;;12.10;;
22068;SDS011;13887;57.196;-2.100;2023-06-10T04:39:17;12.70;;;12.30;;
22068;SDS011;13887;57.196;-2.100;2023-06-10T04:41:45;12.40;;;12.00;;
22068;SDS011;13887;57.196;-2.100;2023-06-10T04:44:12;12.53;;;12.13;;
22068;SDS011;13887;57.196;-2.100;2023-06-10T04:46:40;12.53;;;12.13;;
22068;SDS011;13887;57.196;-2.100;2023-06-10T04:49:08;12.37;;;11.97;;
22068;SDS011;13887;57.196;-2.100;2023-06-10T04:51:35;12.50;;;12.10;;
22068;SDS011;13887;57.196;-2.100;2023-06-10T04:54:02;12.43;;;12.03;;
22068;SDS011;13887;57.196;-2.100;2023-06-10T04:56:30;12.10;;;11.70;;
22068;SDS011;13887;57.196;-2.100;2023-06-10T04:58:57;12.53;;;12.13;;
22068;SDS011;13887;57.196;-2.100;2023-06-10T05:01:24;12.50;;;12.10;;
22068;SDS011;13887;57.196;-2.100;2023-06-10T05:03:52;12.53;;;12.13;;
22068;SDS011;13887;57.196;-2.100;2023-06-10T05:06:18;12.50;;;12.10;;
22068;SDS011;13887;57.196;-2.100;2023-06-10T05:08:46;12.70;;;12.30;;
22068;SDS011;13887;57.196;-2.100;2023-06-10T05:11:13;12.57;;;12.17;;
22068;SDS011;13887;57.196;-2.100;2023-06-10T05:13:41;12.33;;;11.93;;
22068;SDS011;13887;57.196;-2.100;2023-06-10T05:16:09;12.37;;;11.97;;
22068;SDS011;13887;57.196;-2.100;2023-06-10T05:18:36;12.37;;;11.97;;
22068;SDS011;13887;57.196;-2.100;2023-06-10T05:21:03;12.80;;;12.40;;
22068;SDS011;13887;57.196;-2.100;2023-06-10T05:23:30;12.30;;;11.90;;
22068;SDS011;13887;57.196;-2.100;2023-06-10T05:25:57;12.43;;;12.03;;
22068;SDS011;13887;57.196;-2.100;2023-06-10T05:28:25;12.53;;;12.13;;
22068;SDS011;13887;57.196;-2.100;2023-06-10T05:30:52;12.40;;;12.00;;
22068;SDS011;13887;57.196;-2.100;2023-06-10T05:33:19;12.27;;;11.87;;
22068;SDS011;13887;57.196;-2.100;2023-06-10T05:35:46;12.40;;;12.00;;
22068;SDS011;13887;57.196;-2.100;2023-06-10T05:38:13;12.70;;;12.30;;
22068;SDS011;13887;57.196;-2.100;2023-06-10T05:40:40;12.50;;;12.10;;
22068;SDS011;13887;57.196;-2.100;2023-06-10T05:43:07;12.23;;;11.83;;
22068;SDS011;13887;57.196;-2.100;2023-06-10T05:45:36;12.50;;;12.10;;
22068;SDS011;13887;57.196;-2.100;2023-06-10T05:48:04;12.77;;;12.37;;
22068;SDS011;13887;57.196;-2.100;2023-06-10T05:50:31;12.50;;;12.10;;
22068;SDS011;13887;57.196;-2.100;2023-06-10T05:53:06;12.23;;;11.83;;
22068;SDS011;13887;57.196;-2.100;2023-06-10T05:55:34;12.03;;;11.63;;
22068;SDS011;13887;57.196;-2.100;2023-06-10T05:58:02;12.40;;;12.00;;
22068;SDS011;13887;57.196;-2.100;2023-06-10T06:00:29;12.70;;;12.30;;
22068;SDS011;13887;57.196;-2.100;2023-06-10T06:02:56;12.20;;;11.80;;
22068;SDS011;13887;57.196;-2.100;2023-06-10T06:05:25;12.27;;;11.87;;
22068;SDS011;13887;57.196;-2.100;2023-06-10T06:07:52;12.70;;;12.30;;
22068;SDS011;13887;57.196;-2.100;2023-06-10T06:10:19;12.63;;;12.23;;
22068;SDS011;13887;57.196;-2.100;2023-06-10T06:12:46;12.50;;;12.10;;
22068;SDS011;13887;57.196;-2.100;2023-06-10T06:15:13;12.23;;;11.83;;
22068;SDS011;13887;57.196;-2.100;2023-06-10T06:17:40;12.23;;;11.83;;
22068;SDS011;13887;57.196;-2.100;2023-06-10T06:20:07;12.50;;;12.10;;
22068;SDS011;13887;57.196;-2.100;2023-06-10T06:22:34;12.53;;;12.13;;
22068;SDS011;13887;57.196;-2.100;2023-06-10T06:25:01;12.37;;;11.97;;
22068;SDS011;13887;57.196;-2.100;2023-06-10T06:27:29;12.30;;;11.90;;
22068;SDS011;13887;57.196;-2.100;2023-06-10T06:29:56;12.40;;;12.00;;
22068;SDS011;13887;57.196;-2.100;2023-06-10T06:32:23;11.50;;;11.10;;
22068;SDS011;13887;57.196;-2.100;2023-06-10T06:34:54;11.87;;;11.47;;
22068;SDS011;13887;57.196;-2.100;2023-06-10T06:37:21;11.90;;;11.50;;
22068;SDS011;13887;57.196;-2.100;2023-06-10T06:39:57;11.77;;;11.37;;
22068;SDS011;13887;57.196;-2.100;2023-06-10T06:42:29;11.90;;;11.50;;
22068;SDS011;13887;57.196;-2.100;2023-06-10T06:45:01;11.83;;;11.43;;
22068;SDS011;13887;57.196;-2.100;2023-06-10T06:47:29;11.70;;;11.30;;
22068;SDS011;13887;57.196;-2.100;2023-06-10T06:49:56;11.63;;;11.23;;
22068;SDS011;13887;57.196;-2.100;2023-06-10T06:52:23;11.83;;;11.43;;
22068;SDS011;13887;57.196;-2.100;2023-06-10T06:54:50;11.90;;;11.50;;
22068;SDS011;13887;57.196;-2.100;2023-06-10T06:57:17;11.90;;;11.50;;
22068;SDS011;13887;57.196;-2.100;2023-06-10T06:59:44;12.23;;;11.83;;
22068;SDS011;13887;57.196;-2.100;2023-06-10T07:02:11;12.10;;;11.70;;
22068;SDS011;13887;57.196;-2.100;2023-06-10T07:04:38;12.20;;;11.80;;
22068;SDS011;13887;57.196;-2.100;2023-06-10T07:07:07;11.83;;;11.43;;
22068;SDS011;13887;57.196;-2.100;2023-06-10T07:09:35;11.90;;;11.50;;
22068;SDS011;13887;57.196;-2.100;2023-06-10T07:12:02;12.17;;;11.77;;
22068;SDS011;13887;57.196;-2.100;2023-06-10T07:14:29;12.40;;;12.00;;
22068;SDS011;13887;57.196;-2.100;2023-06-10T07:16:56;12.47;;;12.07;;
22068;SDS011;13887;57.196;-2.100;2023-06-10T07:19:23;12.17;;;11.77;;
22068;SDS011;13887;57.196;-2.100;2023-06-10T07:21:51;12.20;;;11.80;;
22068;SDS011;13887;57.196;-2.100;2023-06-10T07:24:17;12.13;;;11.73;;
22068;SDS011;13887;57.196;-2.100;2023-06-10T07:26:46;12.60;;;12.20;;
22068;SDS011;13887;57.196;-2.100;2023-06-10T07:29:13;12.70;;;12.30;;
22068;SDS011;13887;57.196;-2.100;2023-06-10T07:31:41;12.57;;;12.17;;
22068;SDS011;13887;57.196;-2.100;2023-06-10T07:34:08;12.23;;;11.83;;
22068;SDS011;13887;57.196;-2.100;2023-06-10T07:36:35;12.20;;;11.80;;
22068;SDS011;13887;57.196;-2.100;2023-06-10T07:39:02;12.47;;;12.07;;
22068;SDS011;13887;57.196;-2.100;2023-06-10T07:41:31;12.03;;;11.63;;
22068;SDS011;13887;57.196;-2.100;2023-06-10T07:43:58;12.67;;;12.27;;
22068;SDS011;13887;57.196;-2.100;2023-06-10T07:46:25;12.13;;;11.73;;
22068;SDS011;13887;57.196;-2.100;2023-06-10T07:48:53;11.77;;;11.37;;
22068;SDS011;13887;57.196;-2.100;2023-06-10T07:51:21;12.50;;;12.10;;
22068;SDS011;13887;57.196;-2.100;2023-06-10T07:53:48;12.03;;;11.63;;
22068;SDS011;13887;57.196;-2.100;2023-06-10T07:56:15;11.97;;;11.57;;
22068;SDS011;13887;57.196;-2.100;2023-06-10T07:58:42;12.10;;;11.70;;
22068;SDS011;13887;57.196;-2.100;2023-06-10T08:01:09;12.50;;;12.10;;
22068;SDS011;13887;57.196;-2.100;2023-06-10T08:03:36;11.97;;;11.57;;
22068;SDS011;13887;57.196;-2.100;2023-06-10T08:06:03;12.30;;;11.90;;
22068;SDS011;13887;57.196;-2.100;2023-06-10T08:08:32;12.43;;;12.03;;
22068;SDS011;13887;57.196;-2.100;2023-06-10T08:10:58;12.37;;;11.97;;
22068;SDS011;13887;57.196;-2.100;2023-06-10T08:13:26;12.57;;;12.17;;
22068;SDS011;13887;57.196;-2.100;2023-06-10T08:15:52;12.43;;;12.03;;
22068;SDS011;13887;57.196;-2.100;2023-06-10T08:18:21;12.43;;;12.03;;
22068;SDS011;13887;57.196;-2.100;2023-06-10T08:20:48;12.13;;;11.73;;
22068;SDS011;13887;57.196;-2.100;2023-06-10T08:23:15;11.13;;;10.80;;
22068;SDS011;13887;57.196;-2.100;2023-06-10T08:25:42;12.23;;;11.83;;
22068;SDS011;13887;57.196;-2.100;2023-06-10T08:28:09;12.00;;;11.60;;
22068;SDS011;13887;57.196;-2.100;2023-06-10T08:30:36;11.93;;;11.53;;
22068;SDS011;13887;57.196;-2.100;2023-06-10T08:33:03;12.23;;;11.83;;
22068;SDS011;13887;57.196;-2.100;2023-06-10T08:35:30;12.03;;;11.63;;
22068;SDS011;13887;57.196;-2.100;2023-06-10T08:37:57;11.90;;;11.50;;
22068;SDS011;13887;57.196;-2.100;2023-06-10T08:40:24;12.00;;;11.60;;
22068;SDS011;13887;57.196;-2.100;2023-06-10T08:45:21;11.80;;;11.40;;
22068;SDS011;13887;57.196;-2.100;2023-06-10T08:47:50;12.10;;;11.70;;
22068;SDS011;13887;57.196;-2.100;2023-06-10T08:50:21;11.93;;;11.53;;
22068;SDS011;13887;57.196;-2.100;2023-06-10T08:52:50;11.43;;;11.03;;
22068;SDS011;13887;57.196;-2.100;2023-06-10T08:55:29;11.90;;;11.50;;
22068;SDS011;13887;57.196;-2.100;2023-06-10T08:57:59;11.60;;;11.20;;
22068;SDS011;13887;57.196;-2.100;2023-06-10T09:00:27;11.70;;;11.30;;
22068;SDS011;13887;57.196;-2.100;2023-06-10T09:02:56;10.90;;;10.60;;
22068;SDS011;13887;57.196;-2.100;2023-06-10T09:05:28;10.97;;;10.67;;
22068;SDS011;13887;57.196;-2.100;2023-06-10T09:07:57;11.53;;;11.13;;
22068;SDS011;13887;57.196;-2.100;2023-06-10T09:10:24;11.60;;;11.20;;
22068;SDS011;13887;57.196;-2.100;2023-06-10T09:12:52;11.60;;;11.20;;
22068;SDS011;13887;57.196;-2.100;2023-06-10T09:15:19;11.50;;;11.10;;
22068;SDS011;13887;57.196;-2.100;2023-06-10T09:17:46;11.40;;;11.00;;
22068;SDS011;13887;57.196;-2.100;2023-06-10T09:20:13;11.97;;;11.57;;
22068;SDS011;13887;57.196;-2.100;2023-06-10T09:22:41;11.80;;;11.40;;
22068;SDS011;13887;57.196;-2.100;2023-06-10T09:25:10;11.40;;;11.00;;
22068;SDS011;13887;57.196;-2.100;2023-06-10T09:27:48;11.50;;;11.10;;
22068;SDS011;13887;57.196;-2.100;2023-06-10T09:30:27;11.50;;;11.10;;
22068;SDS011;13887;57.196;-2.100;2023-06-10T09:32:59;11.70;;;11.30;;
22068;SDS011;13887;57.196;-2.100;2023-06-10T09:35:28;10.93;;;10.63;;
22068;SDS011;13887;57.196;-2.100;2023-06-10T09:37:58;11.20;;;10.90;;
22068;SDS011;13887;57.196;-2.100;2023-06-10T09:40:27;10.87;;;10.57;;
22068;SDS011;13887;57.196;-2.100;2023-06-10T09:42:57;11.60;;;11.20;;
22068;SDS011;13887;57.196;-2.100;2023-06-10T09:45:31;11.27;;;10.90;;
22068;SDS011;13887;57.196;-2.100;2023-06-10T09:48:00;10.83;;;10.53;;
22068;SDS011;13887;57.196;-2.100;2023-06-10T09:50:27;11.20;;;10.90;;
22068;SDS011;13887;57.196;-2.100;2023-06-10T09:52:54;11.60;;;11.20;;
22068;SDS011;13887;57.196;-2.100;2023-06-10T09:55:21;11.00;;;10.70;;
22068;SDS011;13887;57.196;-2.100;2023-06-10T09:57:52;11.27;;;10.97;;
22068;SDS011;13887;57.196;-2.100;2023-06-10T10:00:21;11.50;;;11.10;;
22068;SDS011;13887;57.196;-2.100;2023-06-10T10:02:50;11.50;;;11.10;;
22068;SDS011;13887;57.196;-2.100;2023-06-10T10:05:21;12.07;;;11.67;;
22068;SDS011;13887;57.196;-2.100;2023-06-10T10:07:50;12.03;;;11.63;;
22068;SDS011;13887;57.196;-2.100;2023-06-10T10:10:18;11.67;;;11.27;;
22068;SDS011;13887;57.196;-2.100;2023-06-10T10:12:47;13.73;;;13.23;;
22068;SDS011;13887;57.196;-2.100;2023-06-10T10:15:17;11.60;;;11.20;;
22068;SDS011;13887;57.196;-2.100;2023-06-10T10:20:26;11.70;;;11.30;;
22068;SDS011;13887;57.196;-2.100;2023-06-10T10:22:57;11.70;;;11.30;;
22068;SDS011;13887;57.196;-2.100;2023-06-10T10:25:25;11.47;;;11.07;;
22068;SDS011;13887;57.196;-2.100;2023-06-10T10:27:57;11.10;;;10.80;;
22068;SDS011;13887;57.196;-2.100;2023-06-10T10:30:33;11.43;;;11.03;;
22068;SDS011;13887;57.196;-2.100;2023-06-10T10:33:09;10.80;;;10.50;;
22068;SDS011;13887;57.196;-2.100;2023-06-10T10:35:43;11.40;;;11.00;;
22068;SDS011;13887;57.196;-2.100;2023-06-10T10:38:14;11.07;;;10.77;;
22068;SDS011;13887;57.196;-2.100;2023-06-10T10:40:42;11.20;;;10.90;;
22068;SDS011;13887;57.196;-2.100;2023-06-10T10:43:11;11.30;;;10.90;;
22068;SDS011;13887;57.196;-2.100;2023-06-10T10:45:39;10.93;;;10.63;;
22068;SDS011;13887;57.196;-2.100;2023-06-10T10:48:07;11.07;;;10.77;;
22068;SDS011;13887;57.196;-2.100;2023-06-10T10:50:38;10.93;;;10.63;;
22068;SDS011;13887;57.196;-2.100;2023-06-10T10:53:07;10.97;;;10.67;;
22068;SDS011;13887;57.196;-2.100;2023-06-10T10:55:34;10.93;;;10.63;;
22068;SDS011;13887;57.196;-2.100;2023-06-10T10:58:07;11.57;;;11.17;;
22068;SDS011;13887;57.196;-2.100;2023-06-10T11:00:37;11.17;;;10.87;;
22068;SDS011;13887;57.196;-2.100;2023-06-10T11:03:13;10.93;;;10.63;;
22068;SDS011;13887;57.196;-2.100;2023-06-10T11:05:46;10.60;;;10.30;;
22068;SDS011;13887;57.196;-2.100;2023-06-10T11:08:45;10.83;;;10.53;;
22068;SDS011;13887;57.196;-2.100;2023-06-10T11:11:25;10.77;;;10.47;;
22068;SDS011;13887;57.196;-2.100;2023-06-10T11:13:57;10.77;;;10.47;;
22068;SDS011;13887;57.196;-2.100;2023-06-10T11:16:28;10.57;;;10.27;;
22068;SDS011;13887;57.196;-2.100;2023-06-10T11:18:56;10.77;;;10.47;;
22068;SDS011;13887;57.196;-2.100;2023-06-10T11:21:24;11.13;;;10.83;;
22068;SDS011;13887;57.196;-2.100;2023-06-10T11:23:57;11.00;;;10.70;;
22068;SDS011;13887;57.196;-2.100;2023-06-10T11:29:02;11.40;;;11.00;;
22068;SDS011;13887;57.196;-2.100;2023-06-10T11:31:41;10.80;;;10.50;;
22068;SDS011;13887;57.196;-2.100;2023-06-10T11:34:10;10.87;;;10.57;;
22068;SDS011;13887;57.196;-2.100;2023-06-10T11:36:38;10.90;;;10.60;;
22068;SDS011;13887;57.196;-2.100;2023-06-10T11:39:11;11.37;;;10.97;;
22068;SDS011;13887;57.196;-2.100;2023-06-10T11:41:39;11.10;;;10.80;;
22068;SDS011;13887;57.196;-2.100;2023-06-10T11:44:13;10.70;;;10.40;;
22068;SDS011;13887;57.196;-2.100;2023-06-10T11:46:45;11.30;;;10.93;;
22068;SDS011;13887;57.196;-2.100;2023-06-10T11:49:15;11.37;;;10.97;;
22068;SDS011;13887;57.196;-2.100;2023-06-10T11:51:42;11.17;;;10.87;;
22068;SDS011;13887;57.196;-2.100;2023-06-10T11:54:16;10.67;;;10.37;;
22068;SDS011;13887;57.196;-2.100;2023-06-10T11:56:44;11.20;;;10.90;;
22068;SDS011;13887;57.196;-2.100;2023-06-10T11:59:11;11.00;;;10.70;;
22068;SDS011;13887;57.196;-2.100;2023-06-10T12:01:42;10.90;;;10.60;;
22068;SDS011;13887;57.196;-2.100;2023-06-10T12:04:11;10.63;;;10.33;;
22068;SDS011;13887;57.196;-2.100;2023-06-10T12:11:57;10.40;;;10.10;;
22068;SDS011;13887;57.196;-2.100;2023-06-10T12:20:00;10.03;;;9.73;;
22068;SDS011;13887;57.196;-2.100;2023-06-10T12:22:35;10.87;;;10.57;;
22068;SDS011;13887;57.196;-2.100;2023-06-10T12:25:06;10.00;;;9.70;;
22068;SDS011;13887;57.196;-2.100;2023-06-10T12:27:35;10.67;;;10.37;;
22068;SDS011;13887;57.196;-2.100;2023-06-10T12:30:04;10.57;;;10.27;;
22068;SDS011;13887;57.196;-2.100;2023-06-10T12:35:03;10.57;;;10.27;;
22068;SDS011;13887;57.196;-2.100;2023-06-10T12:37:31;10.47;;;10.17;;
22068;SDS011;13887;57.196;-2.100;2023-06-10T12:40:01;10.13;;;9.83;;
22068;SDS011;13887;57.196;-2.100;2023-06-10T12:42:29;10.30;;;10.00;;
22068;SDS011;13887;57.196;-2.100;2023-06-10T12:44:58;10.13;;;9.83;;
22068;SDS011;13887;57.196;-2.100;2023-06-10T12:47:31;10.10;;;9.80;;
22068;SDS011;13887;57.196;-2.100;2023-06-10T12:50:01;10.67;;;10.37;;
22068;SDS011;13887;57.196;-2.100;2023-06-10T12:52:29;10.83;;;10.53;;
22068;SDS011;13887;57.196;-2.100;2023-06-10T12:54:57;10.43;;;10.13;;
22068;SDS011;13887;57.196;-2.100;2023-06-10T12:57:25;10.60;;;10.30;;
22068;SDS011;13887;57.196;-2.100;2023-06-10T12:59:52;10.77;;;10.47;;
22068;SDS011;13887;57.196;-2.100;2023-06-10T13:02:19;10.13;;;9.83;;
22068;SDS011;13887;57.196;-2.100;2023-06-10T13:04:47;10.50;;;10.20;;
22068;SDS011;13887;57.196;-2.100;2023-06-10T13:07:14;11.43;;;11.03;;
22068;SDS011;13887;57.196;-2.100;2023-06-10T13:09:42;10.80;;;10.50;;
22068;SDS011;13887;57.196;-2.100;2023-06-10T13:12:09;10.63;;;10.33;;
22068;SDS011;13887;57.196;-2.100;2023-06-10T13:14:42;10.60;;;10.30;;
22068;SDS011;13887;57.196;-2.100;2023-06-10T13:17:09;10.87;;;10.57;;
22068;SDS011;13887;57.196;-2.100;2023-06-10T13:19:36;10.80;;;10.50;;
22068;SDS011;13887;57.196;-2.100;2023-06-10T13:22:03;10.70;;;10.40;;
22068;SDS011;13887;57.196;-2.100;2023-06-10T13:24:30;10.67;;;10.37;;
22068;SDS011;13887;57.196;-2.100;2023-06-10T13:26:57;11.97;;;11.57;;
22068;SDS011;13887;57.196;-2.100;2023-06-10T13:29:24;10.40;;;10.10;;
22068;SDS011;13887;57.196;-2.100;2023-06-10T13:31:51;9.87;;;9.57;;
22068;SDS011;13887;57.196;-2.100;2023-06-10T13:34:18;10.80;;;10.50;;
22068;SDS011;13887;57.196;-2.100;2023-06-10T13:36:45;11.00;;;10.70;;
22068;SDS011;13887;57.196;-2.100;2023-06-10T13:39:12;10.40;;;10.10;;
22068;SDS011;13887;57.196;-2.100;2023-06-10T13:41:40;10.47;;;10.17;;
22068;SDS011;13887;57.196;-2.100;2023-06-10T13:44:08;10.57;;;10.27;;
22068;SDS011;13887;57.196;-2.100;2023-06-10T13:46:35;10.70;;;10.40;;
22068;SDS011;13887;57.196;-2.100;2023-06-10T13:49:02;10.63;;;10.33;;
22068;SDS011;13887;57.196;-2.100;2023-06-10T13:51:29;11.00;;;10.70;;
22068;SDS011;13887;57.196;-2.100;2023-06-10T13:53:56;11.13;;;10.83;;
22068;SDS011;13887;57.196;-2.100;2023-06-10T13:56:23;10.93;;;10.63;;
22068;SDS011;13887;57.196;-2.100;2023-06-10T13:58:51;10.93;;;10.63;;
22068;SDS011;13887;57.196;-2.100;2023-06-10T14:01:18;11.00;;;10.70;;
22068;SDS011;13887;57.196;-2.100;2023-06-10T14:03:45;10.93;;;10.63;;
22068;SDS011;13887;57.196;-2.100;2023-06-10T14:06:13;11.00;;;10.70;;
22068;SDS011;13887;57.196;-2.100;2023-06-10T14:08:44;11.37;;;11.00;;
22068;SDS011;13887;57.196;-2.100;2023-06-10T14:11:11;11.10;;;10.80;;
22068;SDS011;13887;57.196;-2.100;2023-06-10T14:13:38;10.90;;;10.60;;
22068;SDS011;13887;57.196;-2.100;2023-06-10T14:16:06;11.00;;;10.70;;
22068;SDS011;13887;57.196;-2.100;2023-06-10T14:18:33;10.53;;;10.23;;
22068;SDS011;13887;57.196;-2.100;2023-06-10T14:21:00;10.80;;;10.50;;
22068;SDS011;13887;57.196;-2.100;2023-06-10T14:23:27;10.80;;;10.50;;
22068;SDS011;13887;57.196;-2.100;2023-06-10T14:25:54;10.57;;;10.27;;
22068;SDS011;13887;57.196;-2.100;2023-06-10T14:28:21;10.57;;;10.27;;
22068;SDS011;13887;57.196;-2.100;2023-06-10T14:30:49;12.90;;;12.40;;
22068;SDS011;13887;57.196;-2.100;2023-06-10T14:33:16;10.70;;;10.40;;
22068;SDS011;13887;57.196;-2.100;2023-06-10T14:35:43;10.50;;;10.20;;
22068;SDS011;13887;57.196;-2.100;2023-06-10T14:38:10;10.23;;;9.93;;
22068;SDS011;13887;57.196;-2.100;2023-06-10T14:40:37;10.60;;;10.30;;
22068;SDS011;13887;57.196;-2.100;2023-06-10T14:43:04;10.67;;;10.37;;
22068;SDS011;13887;57.196;-2.100;2023-06-10T14:45:36;10.50;;;10.20;;
22068;SDS011;13887;57.196;-2.100;2023-06-10T14:48:04;10.67;;;10.37;;